createdAt,value
2022-12-25T00:00:45.912Z,100767.00
2022-12-25T00:03:49.446Z,100778.16
2022-12-25T00:06:51.910Z,100731.63
2022-12-25T00:09:54.636Z,100783.34
2022-12-25T00:12:57.064Z,100791.75
2022-12-25T00:16:04.857Z,100794.44
2022-12-25T00:19:07.369Z,100775.44
2022-12-25T00:22:10.042Z,100762.03
2022-12-25T00:25:12.655Z,100767.81
2022-12-25T00:28:15.347Z,100775.16
2022-12-25T00:31:18.135Z,100815.12
2022-12-25T00:34:22.014Z,100809.06
2022-12-25T00:37:24.494Z,100820.50
2022-12-25T00:40:28.796Z,100832.28
2022-12-25T00:43:31.213Z,100824.06
2022-12-25T00:46:36.290Z,100832.00
2022-12-25T00:49:38.861Z,100830.37
2022-12-25T00:52:41.843Z,100828.97
2022-12-25T00:55:52.104Z,100838.50
2022-12-25T00:58:55.612Z,100840.75
2022-12-25T01:02:18.177Z,100818.00
2022-12-25T01:05:21.040Z,100823.19
2022-12-25T01:08:23.460Z,100833.47
2022-12-25T01:11:26.305Z,100822.47
2022-12-25T01:14:28.612Z,100853.75
2022-12-25T01:17:31.305Z,100833.63
2022-12-25T01:20:33.668Z,100816.13
2022-12-25T01:23:36.748Z,100848.13
2022-12-25T01:26:39.055Z,100854.94
2022-12-25T01:29:41.793Z,100838.78
2022-12-25T01:32:44.260Z,100865.91
2022-12-25T01:35:47.765Z,100866.81
2022-12-25T01:38:51.684Z,100861.00
2022-12-25T01:41:54.323Z,100862.66
2022-12-25T01:45:43.819Z,100853.72
2022-12-25T01:48:46.728Z,100883.47
2022-12-25T01:51:54.464Z,100875.25
2022-12-25T01:55:04.073Z,100835.81
2022-12-25T01:58:06.696Z,100858.88
2022-12-25T02:01:09.422Z,100857.25
2022-12-25T02:04:25.163Z,100859.19
2022-12-25T02:07:32.428Z,100873.19
2022-12-25T02:10:35.447Z,100862.84
2022-12-25T02:13:37.856Z,100827.97
2022-12-25T02:16:56.798Z,100827.47
2022-12-25T02:20:16.054Z,100860.69
2022-12-25T02:23:57.057Z,100874.37
2022-12-25T02:27:07.257Z,100858.53
2022-12-25T02:30:10.945Z,100864.13
2022-12-25T02:33:46.136Z,100863.56
2022-12-25T02:36:53.885Z,100883.06
2022-12-25T02:40:09.570Z,100886.03
2022-12-25T02:43:39.511Z,100858.84
2022-12-25T02:47:02.623Z,100880.22
2022-12-25T02:50:25.808Z,100877.56
2022-12-25T02:53:47.508Z,100879.22
2022-12-25T02:57:11.633Z,100882.75
2022-12-25T03:00:32.997Z,100865.97
2022-12-25T03:03:58.747Z,100897.66
2022-12-25T03:07:06.226Z,100903.62
2022-12-25T03:10:29.392Z,100906.88
2022-12-25T03:13:38.220Z,100907.41
2022-12-25T03:16:54.099Z,100913.69
2022-12-25T03:20:16.648Z,100921.91
2022-12-25T03:23:42.916Z,100917.56
2022-12-25T03:26:54.972Z,100918.34
2022-12-25T03:30:16.254Z,100893.34
2022-12-25T03:33:47.070Z,100910.22
2022-12-25T03:37:28.606Z,100900.16
2022-12-25T03:41:34.911Z,100928.19
2022-12-25T03:45:26.558Z,100939.47
2022-12-25T03:48:52.413Z,100939.53
2022-12-25T03:52:18.254Z,100931.19
2022-12-25T03:55:41.991Z,100935.03
2022-12-25T03:59:16.526Z,100931.38
2022-12-25T04:02:41.600Z,100954.78
2022-12-25T04:06:02.745Z,100942.50
2022-12-25T04:09:23.638Z,100951.53
2022-12-25T04:12:44.758Z,100943.59
2022-12-25T04:16:05.968Z,100951.59
2022-12-25T04:19:28.573Z,100931.53
2022-12-25T04:22:49.728Z,100935.69
2022-12-25T04:26:12.103Z,100921.59
2022-12-25T04:29:33.179Z,100913.47
2022-12-25T04:32:54.994Z,100951.06
2022-12-25T04:36:10.117Z,100947.81
2022-12-25T04:39:12.877Z,100923.66
2022-12-25T04:42:16.930Z,100919.53
2022-12-25T04:45:20.727Z,100936.84
2022-12-25T04:48:23.839Z,100904.28
2022-12-25T04:51:26.502Z,100904.50
2022-12-25T04:54:29.697Z,100935.84
2022-12-25T04:57:32.898Z,100942.91
2022-12-25T05:00:35.276Z,100944.09
2022-12-25T05:03:38.940Z,100919.31
2022-12-25T05:06:41.441Z,100947.38
2022-12-25T05:09:44.117Z,100927.00
2022-12-25T05:12:46.558Z,100946.78
2022-12-25T05:15:49.761Z,100955.03
2022-12-25T05:18:52.394Z,100964.97
2022-12-25T05:21:55.357Z,100961.72
2022-12-25T05:24:57.903Z,100957.50
2022-12-25T05:28:00.854Z,100958.87
2022-12-25T05:31:03.517Z,100957.50
2022-12-25T05:34:06.322Z,100947.16
2022-12-25T05:37:09.487Z,100939.06
2022-12-25T05:40:12.213Z,100914.09
2022-12-25T05:43:14.589Z,100969.63
2022-12-25T05:46:17.893Z,100933.78
2022-12-25T05:49:20.462Z,100968.56
2022-12-25T05:52:23.464Z,100966.34
2022-12-25T05:55:25.867Z,100982.75
2022-12-25T05:58:28.654Z,100983.38
2022-12-25T06:01:31.144Z,100966.59
2022-12-25T06:04:34.182Z,100993.00
2022-12-25T06:07:36.516Z,100991.16
2022-12-25T06:10:40.233Z,100979.72
2022-12-25T06:13:42.852Z,100981.47
2022-12-25T06:16:45.763Z,100984.28
2022-12-25T06:19:48.171Z,100987.53
2022-12-25T06:22:50.839Z,100976.91
2022-12-25T06:25:53.331Z,100973.41
2022-12-25T06:28:55.980Z,100983.50
2022-12-25T06:31:59.068Z,100996.00
2022-12-25T06:35:02.386Z,100989.81
2022-12-25T06:38:04.769Z,100985.75
2022-12-25T06:41:11.183Z,100997.16
2022-12-25T06:44:14.413Z,101008.31
2022-12-25T06:47:17.616Z,101007.81
2022-12-25T06:50:19.916Z,101017.09
2022-12-25T06:53:22.575Z,100980.69
2022-12-25T06:56:27.949Z,101013.91
2022-12-25T06:59:30.634Z,101015.00
2022-12-25T07:02:33.604Z,101030.88
2022-12-25T07:05:36.438Z,101035.19
2022-12-25T07:08:38.820Z,101039.53
2022-12-25T07:11:42.437Z,100984.28
2022-12-25T07:14:48.809Z,101042.53
2022-12-25T07:17:51.635Z,101056.41
2022-12-25T07:20:55.837Z,101067.59
2022-12-25T07:23:58.573Z,101074.72
2022-12-25T07:27:01.020Z,101077.97
2022-12-25T07:30:04.306Z,101021.91
2022-12-25T07:33:06.859Z,101058.62
2022-12-25T07:36:13.429Z,101090.16
2022-12-25T07:39:16.403Z,101072.62
2022-12-25T07:42:24.817Z,101081.88
2022-12-25T07:45:29.839Z,101080.47
2022-12-25T07:48:32.968Z,101093.28
2022-12-25T07:51:35.384Z,101096.47
2022-12-25T07:54:38.096Z,101095.84
2022-12-25T07:57:40.430Z,101104.25
2022-12-25T08:00:43.129Z,101079.66
2022-12-25T08:03:54.476Z,101108.69
2022-12-25T08:06:56.977Z,101108.56
2022-12-25T08:09:59.851Z,101117.19
2022-12-25T08:13:02.305Z,101096.44
2022-12-25T08:16:11.042Z,101118.63
2022-12-25T08:19:14.974Z,101114.97
2022-12-25T08:22:17.707Z,101123.41
2022-12-25T08:25:20.057Z,101110.25
2022-12-25T08:28:23.935Z,101099.94
2022-12-25T08:31:28.822Z,101115.19
2022-12-25T08:34:31.554Z,101131.50
2022-12-25T08:37:33.935Z,101133.34
2022-12-25T08:40:36.655Z,101132.41
2022-12-25T08:43:39.514Z,101136.13
2022-12-25T08:46:43.745Z,101133.62
2022-12-25T08:49:46.235Z,101140.22
2022-12-25T08:52:49.297Z,101121.16
2022-12-25T08:56:03.770Z,101114.87
2022-12-25T08:59:06.526Z,101138.87
2022-12-25T09:02:11.858Z,101123.03
2022-12-25T09:05:16.975Z,101136.34
2022-12-25T09:08:21.717Z,101147.75
2022-12-25T09:11:24.549Z,101146.59
2022-12-25T09:14:26.913Z,101143.66
2022-12-25T09:17:29.553Z,101135.16
2022-12-25T09:20:33.037Z,101144.59
2022-12-25T09:23:38.938Z,101119.62
2022-12-25T09:26:41.350Z,101148.16
2022-12-25T09:29:43.997Z,101151.44
2022-12-25T09:32:46.390Z,101148.78
2022-12-25T09:35:59.401Z,101131.06
2022-12-25T09:39:01.971Z,101137.56
2022-12-25T09:42:16.927Z,101150.59
2022-12-25T09:45:28.645Z,101123.47
2022-12-25T09:48:40.369Z,101152.75
2022-12-25T09:51:45.422Z,101132.78
2022-12-25T09:55:06.431Z,101139.94
2022-12-25T09:58:13.621Z,101140.16
2022-12-25T10:01:41.270Z,101147.84
2022-12-25T10:04:43.922Z,101143.78
2022-12-25T10:08:01.657Z,101149.37
2022-12-25T10:11:23.400Z,101156.78
2022-12-25T10:14:38.821Z,101150.78
2022-12-25T10:17:49.920Z,101125.37
2022-12-25T10:20:56.667Z,101144.25
2022-12-25T10:23:59.320Z,101115.00
2022-12-25T10:27:07.356Z,101144.59
2022-12-25T10:30:15.934Z,101131.50
2022-12-25T10:33:18.713Z,101129.91
2022-12-25T10:36:24.940Z,101124.28
2022-12-25T10:39:27.548Z,101127.19
2022-12-25T10:42:38.734Z,101123.34
2022-12-25T10:45:49.645Z,101135.69
2022-12-25T10:48:56.834Z,101108.44
2022-12-25T10:51:59.427Z,101128.37
2022-12-25T10:55:11.961Z,101127.03
2022-12-25T10:58:20.602Z,101117.25
2022-12-25T11:01:28.363Z,101113.56
2022-12-25T11:04:35.651Z,101101.41
2022-12-25T11:07:51.322Z,101039.03
2022-12-25T11:11:06.593Z,101114.03
2022-12-25T11:14:18.698Z,101109.16
2022-12-25T11:17:25.088Z,101102.72
2022-12-25T11:20:28.227Z,101105.22
2022-12-25T11:23:32.852Z,101093.72
2022-12-25T11:26:47.548Z,101080.47
2022-12-25T11:29:54.180Z,101097.34
2022-12-25T11:33:02.405Z,101049.94
2022-12-25T11:36:16.431Z,101087.28
2022-12-25T11:39:27.862Z,101090.56
2022-12-25T11:42:37.161Z,101077.41
2022-12-25T11:49:21.633Z,101074.44
2022-12-25T11:52:28.031Z,101063.69
2022-12-25T11:55:40.977Z,101042.66
2022-12-25T11:58:51.899Z,101051.00
2022-12-25T12:01:54.867Z,101065.69
2022-12-25T12:05:09.246Z,101073.94
2022-12-25T12:08:13.934Z,101076.44
2022-12-25T12:11:27.278Z,101079.59
2022-12-25T12:15:01.950Z,101071.00
2022-12-25T12:18:09.036Z,101068.59
2022-12-25T12:21:41.228Z,101069.41
2022-12-25T12:24:46.290Z,101070.28
2022-12-25T12:28:04.548Z,101059.31
2022-12-25T12:31:09.442Z,101074.88
2022-12-25T12:34:56.642Z,101057.94
2022-12-25T12:38:04.521Z,101080.87
2022-12-25T12:41:08.667Z,101092.81
2022-12-25T12:44:14.426Z,101085.47
2022-12-25T12:47:41.149Z,101083.41
2022-12-25T12:50:43.879Z,101089.75
2022-12-25T12:53:46.381Z,101074.72
2022-12-25T12:57:01.166Z,101083.91
2022-12-25T13:00:10.902Z,101004.41
2022-12-25T13:03:13.815Z,101090.53
2022-12-25T13:06:41.681Z,101075.78
2022-12-25T13:10:25.767Z,101086.34
2022-12-25T13:13:40.901Z,101099.38
2022-12-25T13:16:46.642Z,101087.87
2022-12-25T13:19:54.973Z,101100.28
2022-12-25T13:22:57.684Z,101093.72
2022-12-25T13:26:06.707Z,101077.00
2022-12-25T13:29:36.690Z,101086.19
2022-12-25T13:32:39.157Z,101061.44
2022-12-25T13:35:45.430Z,101084.66
2022-12-25T13:38:51.114Z,101089.22
2022-12-25T13:42:06.898Z,101083.88
2022-12-25T13:45:36.407Z,101077.56
2022-12-25T13:48:39.158Z,101089.97
2022-12-25T13:51:42.274Z,101062.56
2022-12-25T13:54:59.370Z,101073.63
2022-12-25T13:58:05.683Z,101093.91
2022-12-25T14:01:11.784Z,101101.56
2022-12-25T14:04:18.715Z,101098.97
2022-12-25T14:07:24.186Z,101099.44
2022-12-25T14:10:35.556Z,101100.12
2022-12-25T14:13:41.912Z,101094.25
2022-12-25T14:16:48.879Z,101075.94
2022-12-25T14:20:04.084Z,101095.44
2022-12-25T14:23:15.915Z,101103.22
2022-12-25T14:26:34.127Z,101107.31
2022-12-25T14:29:44.711Z,101092.19
2022-12-25T14:32:53.501Z,101103.41
2022-12-25T14:35:56.838Z,101100.78
2022-12-25T14:39:03.004Z,101093.00
2022-12-25T14:42:12.928Z,101109.88
2022-12-25T14:45:35.010Z,101117.34
2022-12-25T14:48:39.053Z,101106.47
2022-12-25T14:51:43.283Z,101119.09
2022-12-25T14:54:59.965Z,101089.38
2022-12-25T14:58:08.115Z,101103.16
2022-12-25T15:01:33.464Z,101108.34
2022-12-25T15:04:37.009Z,101098.28
2022-12-25T15:07:39.959Z,101117.44
2022-12-25T15:11:01.015Z,101120.34
2022-12-25T15:14:05.196Z,101109.09
2022-12-25T15:17:27.404Z,101119.75
2022-12-25T15:20:35.421Z,101113.88
2022-12-25T15:23:37.748Z,101123.53
2022-12-25T15:26:40.407Z,101120.44
2022-12-25T15:30:09.309Z,101117.34
2022-12-25T15:33:24.465Z,101089.84
2022-12-25T15:36:27.743Z,101113.34
2022-12-25T15:39:30.396Z,101120.12
2022-12-25T15:42:33.238Z,101125.63
2022-12-25T15:45:36.029Z,101114.25
2022-12-25T15:48:38.408Z,101132.41
2022-12-25T15:51:41.899Z,101126.62
2022-12-25T15:54:44.221Z,101119.38
2022-12-25T15:57:54.656Z,101121.63
2022-12-25T16:00:57.029Z,101115.75
2022-12-25T16:04:00.004Z,101114.25
2022-12-25T16:07:02.430Z,101125.78
2022-12-25T16:10:07.557Z,101120.91
2022-12-25T16:13:09.851Z,101133.53
2022-12-25T16:16:12.509Z,101121.19
2022-12-25T16:19:14.886Z,101109.00
2022-12-25T16:22:23.185Z,101120.09
2022-12-25T16:25:26.120Z,101098.13
2022-12-25T16:28:28.793Z,101117.00
2022-12-25T16:31:31.243Z,101083.03
2022-12-25T16:34:33.973Z,101109.38
2022-12-25T16:37:36.510Z,101106.00
2022-12-25T16:40:41.798Z,101074.78
2022-12-25T16:43:44.418Z,101107.44
2022-12-25T16:46:47.695Z,101100.63
2022-12-25T16:49:52.378Z,101108.37
2022-12-25T16:52:55.082Z,101082.34
2022-12-25T16:56:05.989Z,101103.50
2022-12-25T16:59:09.253Z,101103.16
2022-12-25T17:02:17.398Z,101097.66
2022-12-25T17:05:20.163Z,101085.47
2022-12-25T17:08:22.509Z,101096.34
2022-12-25T17:11:30.273Z,101093.59
2022-12-25T17:14:33.960Z,101085.66
2022-12-25T17:17:37.554Z,101093.44
2022-12-25T17:20:39.994Z,101096.19
2022-12-25T17:23:45.031Z,101069.62
2022-12-25T17:26:47.925Z,101098.13
2022-12-25T17:29:50.573Z,101098.41
2022-12-25T17:32:53.139Z,101097.09
2022-12-25T17:36:01.862Z,101087.72
2022-12-25T17:39:06.505Z,101085.94
2022-12-25T17:42:09.165Z,101074.09
2022-12-25T17:45:11.909Z,101063.72
2022-12-25T17:48:16.094Z,101032.69
2022-12-25T17:51:21.436Z,101058.84
2022-12-25T17:54:24.092Z,101070.47
2022-12-25T17:57:26.422Z,101066.88
2022-12-25T18:00:29.120Z,101063.16
2022-12-25T18:03:32.059Z,101031.66
2022-12-25T18:06:36.209Z,101056.88
2022-12-25T18:09:38.919Z,101072.78
2022-12-25T18:12:43.609Z,101053.66
2022-12-25T18:15:46.437Z,101068.78
2022-12-25T18:18:52.382Z,101065.28
2022-12-25T18:21:55.549Z,101058.75
2022-12-25T18:24:57.866Z,101054.06
2022-12-25T18:28:02.619Z,101050.50
2022-12-25T18:31:15.865Z,101037.84
2022-12-25T18:34:18.536Z,101055.00
2022-12-25T18:37:21.375Z,101054.19
2022-12-25T18:40:24.547Z,101060.50
2022-12-25T18:43:51.499Z,101035.75
2022-12-25T18:46:49.506Z,101059.69
2022-12-25T18:49:52.932Z,101049.78
2022-12-25T18:52:55.617Z,101056.94
2022-12-25T18:56:10.898Z,101053.03
2022-12-25T18:59:13.513Z,101061.81
2022-12-25T19:02:16.798Z,101030.63
2022-12-25T19:05:19.463Z,101046.09
2022-12-25T19:08:21.930Z,101035.31
2022-12-25T19:11:24.700Z,100956.44
2022-12-25T19:14:28.398Z,101018.00
2022-12-25T19:17:32.152Z,101035.28
2022-12-25T19:20:37.843Z,101033.03
2022-12-25T19:23:40.604Z,101032.41
2022-12-25T19:26:43.853Z,101024.28
2022-12-25T19:29:46.814Z,101025.53
2022-12-25T19:32:49.321Z,101042.81
2022-12-25T19:35:52.113Z,101029.78
2022-12-25T19:38:54.453Z,101017.47
2022-12-25T19:41:57.056Z,101016.16
2022-12-25T19:44:59.601Z,101032.06
2022-12-25T19:48:02.212Z,101034.69
2022-12-25T19:51:18.047Z,101050.84
2022-12-25T19:54:21.397Z,101014.81
2022-12-25T19:57:23.711Z,101040.13
2022-12-25T20:00:27.345Z,101039.31
2022-12-25T20:03:30.288Z,101027.31
2022-12-25T20:06:33.876Z,101023.41
2022-12-25T20:09:36.515Z,100989.91
2022-12-25T20:12:38.975Z,100967.16
2022-12-25T20:15:41.718Z,100971.12
2022-12-25T20:18:44.358Z,100934.75
2022-12-25T20:21:47.826Z,100964.25
2022-12-25T20:24:50.209Z,101000.72
2022-12-25T20:27:53.763Z,100987.66
2022-12-25T20:30:56.485Z,101017.06
2022-12-25T20:34:05.921Z,101012.31
2022-12-25T20:37:08.374Z,101004.97
2022-12-25T20:40:11.797Z,100968.38
2022-12-25T20:43:14.117Z,100968.38
2022-12-25T20:46:17.066Z,100986.75
2022-12-25T20:49:19.426Z,100989.50
2022-12-25T20:52:22.022Z,101006.81
2022-12-25T20:55:24.410Z,101002.13
2022-12-25T20:58:27.457Z,100987.06
2022-12-25T21:01:30.906Z,100988.06
2022-12-25T21:04:33.747Z,100991.12
2022-12-25T21:07:36.216Z,100989.94
2022-12-25T21:10:38.842Z,101003.69
2022-12-25T21:13:42.899Z,100998.66
2022-12-25T21:16:45.574Z,100988.50
2022-12-25T21:19:49.261Z,100980.78
2022-12-25T21:22:51.847Z,100975.28
2022-12-25T21:25:54.898Z,100980.94
2022-12-25T21:29:00.449Z,100991.12
2022-12-25T21:32:21.739Z,100988.38
2022-12-25T21:35:27.198Z,100996.00
2022-12-25T21:38:29.861Z,100892.34
2022-12-25T21:41:37.867Z,100882.00
2022-12-25T21:44:40.287Z,100975.31
2022-12-25T21:47:59.790Z,100911.63
2022-12-25T21:51:34.412Z,100874.84
2022-12-25T21:54:37.616Z,100962.37
2022-12-25T21:57:40.217Z,100911.44
2022-12-25T22:00:43.007Z,100896.00
2022-12-25T22:03:46.079Z,100948.25
2022-12-25T22:07:12.206Z,101008.03
2022-12-25T22:10:15.122Z,100930.97
2022-12-25T22:13:36.233Z,100930.97
2022-12-25T22:17:00.282Z,100973.44
2022-12-25T22:20:03.879Z,100999.47
2022-12-25T22:23:07.161Z,100970.38
2022-12-25T22:26:20.638Z,100993.16
2022-12-25T22:29:25.233Z,100998.66
2022-12-25T22:32:28.735Z,100866.12
2022-12-25T22:35:31.359Z,100911.81
2022-12-25T22:38:34.579Z,100982.16
2022-12-25T22:41:37.772Z,100986.03
2022-12-25T22:44:40.387Z,100991.53
2022-12-25T22:47:43.949Z,100991.53
2022-12-25T22:50:46.328Z,100996.19
2022-12-25T22:53:50.009Z,100972.31
2022-12-25T22:56:53.375Z,100970.38
2022-12-25T22:59:56.127Z,100977.28
2022-12-25T23:02:58.809Z,100977.78
2022-12-25T23:06:01.745Z,100956.13
2022-12-25T23:09:05.453Z,100941.25
2022-12-25T23:12:27.887Z,100927.63
2022-12-25T23:15:30.225Z,100978.88
2022-12-25T23:18:51.586Z,100988.28
2022-12-25T23:22:12.527Z,100942.50
2022-12-25T23:25:34.466Z,100970.44
2022-12-25T23:28:57.400Z,100974.00
2022-12-25T23:32:00.238Z,100951.87
2022-12-25T23:35:03.279Z,100972.69
2022-12-25T23:38:05.918Z,100955.75
2022-12-25T23:41:08.220Z,100956.03
2022-12-25T23:44:12.910Z,100940.94
2022-12-25T23:47:15.319Z,100947.56
2022-12-25T23:50:17.925Z,100946.56
2022-12-25T23:53:20.378Z,100919.88
2022-12-25T23:56:23.431Z,100914.69
2022-12-25T23:59:28.096Z,100874.00
